sensor_id;sensor_type;location;lat;lon;timestamp;P1;durP1;ratioP1;P2;durP2;ratioP2
76599;SDS011;65489;52.048;6.090;2023-02-12T00:02:03;2.70;;;1.05;;
76599;SDS011;65489;52.048;6.090;2023-02-12T00:04:28;2.17;;;1.00;;
76599;SDS011;65489;52.048;6.090;2023-02-12T00:06:54;1.13;;;0.60;;
76599;SDS011;65489;52.048;6.090;2023-02-12T00:09:19;1.15;;;0.80;;
76599;SDS011;65489;52.048;6.090;2023-02-12T00:11:45;0.95;;;0.77;;
76599;SDS011;65489;52.048;6.090;2023-02-12T00:14:10;1.25;;;0.70;;
76599;SDS011;65489;52.048;6.090;2023-02-12T00:16:36;1.67;;;1.10;;
76599;SDS011;65489;52.048;6.090;2023-02-12T00:19:01;0.70;;;0.60;;
76599;SDS011;65489;52.048;6.090;2023-02-12T00:21:27;1.13;;;0.88;;
76599;SDS011;65489;52.048;6.090;2023-02-12T00:23:52;1.13;;;0.70;;
76599;SDS011;65489;52.048;6.090;2023-02-12T00:26:19;1.05;;;0.80;;
76599;SDS011;65489;52.048;6.090;2023-02-12T00:28:47;0.90;;;0.63;;
76599;SDS011;65489;52.048;6.090;2023-02-12T00:31:18;1.63;;;0.70;;
76599;SDS011;65489;52.048;6.090;2023-02-12T00:33:46;1.73;;;0.70;;
76599;SDS011;65489;52.048;6.090;2023-02-12T00:36:16;2.33;;;1.40;;
76599;SDS011;65489;52.048;6.090;2023-02-12T00:38:44;1.05;;;0.90;;
76599;SDS011;65489;52.048;6.090;2023-02-12T00:41:09;1.17;;;0.90;;
76599;SDS011;65489;52.048;6.090;2023-02-12T00:43:35;2.05;;;0.93;;
76599;SDS011;65489;52.048;6.090;2023-02-12T00:46:01;1.35;;;0.75;;
76599;SDS011;65489;52.048;6.090;2023-02-12T00:48:26;1.42;;;0.98;;
76599;SDS011;65489;52.048;6.090;2023-02-12T00:50:52;1.45;;;0.70;;
76599;SDS011;65489;52.048;6.090;2023-02-12T00:53:17;0.93;;;0.73;;
76599;SDS011;65489;52.048;6.090;2023-02-12T00:55:43;1.45;;;0.80;;
76599;SDS011;65489;52.048;6.090;2023-02-12T00:58:09;1.58;;;0.80;;
76599;SDS011;65489;52.048;6.090;2023-02-12T01:00:35;1.10;;;0.90;;
76599;SDS011;65489;52.048;6.090;2023-02-12T01:03:01;1.17;;;0.90;;
76599;SDS011;65489;52.048;6.090;2023-02-12T01:05:27;1.05;;;0.77;;
76599;SDS011;65489;52.048;6.090;2023-02-12T01:07:53;1.00;;;0.70;;
76599;SDS011;65489;52.048;6.090;2023-02-12T01:10:19;1.23;;;0.88;;
76599;SDS011;65489;52.048;6.090;2023-02-12T01:12:45;0.80;;;0.68;;
76599;SDS011;65489;52.048;6.090;2023-02-12T01:15:11;1.33;;;0.82;;
76599;SDS011;65489;52.048;6.090;2023-02-12T01:17:37;1.52;;;0.98;;
76599;SDS011;65489;52.048;6.090;2023-02-12T01:20:03;1.60;;;0.75;;
76599;SDS011;65489;52.048;6.090;2023-02-12T01:22:34;1.38;;;0.80;;
76599;SDS011;65489;52.048;6.090;2023-02-12T01:27:26;1.40;;;1.00;;
76599;SDS011;65489;52.048;6.090;2023-02-12T01:29:53;1.00;;;0.65;;
76599;SDS011;65489;52.048;6.090;2023-02-12T01:32:19;1.40;;;0.80;;
76599;SDS011;65489;52.048;6.090;2023-02-12T01:34:45;1.60;;;0.98;;
76599;SDS011;65489;52.048;6.090;2023-02-12T01:37:10;1.00;;;0.65;;
76599;SDS011;65489;52.048;6.090;2023-02-12T01:39:36;1.13;;;0.90;;
76599;SDS011;65489;52.048;6.090;2023-02-12T01:42:02;1.35;;;0.93;;
76599;SDS011;65489;52.048;6.090;2023-02-12T01:44:29;1.48;;;0.70;;
76599;SDS011;65489;52.048;6.090;2023-02-12T01:46:59;0.93;;;0.80;;
76599;SDS011;65489;52.048;6.090;2023-02-12T01:52:04;1.00;;;0.60;;
76599;SDS011;65489;52.048;6.090;2023-02-12T01:54:33;1.60;;;1.00;;
76599;SDS011;65489;52.048;6.090;2023-02-12T01:56:59;0.88;;;0.70;;
76599;SDS011;65489;52.048;6.090;2023-02-12T01:59:27;1.48;;;0.95;;
76599;SDS011;65489;52.048;6.090;2023-02-12T02:01:53;1.02;;;0.82;;
76599;SDS011;65489;52.048;6.090;2023-02-12T02:04:20;2.05;;;1.00;;
76599;SDS011;65489;52.048;6.090;2023-02-12T02:06:49;0.82;;;0.70;;
76599;SDS011;65489;52.048;6.090;2023-02-12T02:09:18;1.30;;;0.77;;
76599;SDS011;65489;52.048;6.090;2023-02-12T02:11:44;0.90;;;0.77;;
76599;SDS011;65489;52.048;6.090;2023-02-12T02:14:29;1.55;;;0.90;;
76599;SDS011;65489;52.048;6.090;2023-02-12T02:31:29;1.33;;;0.80;;
76599;SDS011;65489;52.048;6.090;2023-02-12T02:36:54;1.63;;;0.90;;
76599;SDS011;65489;52.048;6.090;2023-02-12T02:39:38;0.98;;;0.73;;
76599;SDS011;65489;52.048;6.090;2023-02-12T02:45:06;1.52;;;0.80;;
76599;SDS011;65489;52.048;6.090;2023-02-12T02:47:42;1.08;;;0.60;;
76599;SDS011;65489;52.048;6.090;2023-02-12T02:50:14;1.10;;;0.80;;
76599;SDS011;65489;52.048;6.090;2023-02-12T02:52:46;0.90;;;0.77;;
76599;SDS011;65489;52.048;6.090;2023-02-12T02:55:15;0.98;;;0.80;;
76599;SDS011;65489;52.048;6.090;2023-02-12T02:57:49;1.17;;;0.95;;
76599;SDS011;65489;52.048;6.090;2023-02-12T03:00:25;1.30;;;0.83;;
76599;SDS011;65489;52.048;6.090;2023-02-12T03:05:42;1.00;;;0.80;;
76599;SDS011;65489;52.048;6.090;2023-02-12T03:10:44;1.20;;;0.80;;
76599;SDS011;65489;52.048;6.090;2023-02-12T03:13:13;1.20;;;0.93;;
76599;SDS011;65489;52.048;6.090;2023-02-12T03:16:02;1.50;;;1.00;;
76599;SDS011;65489;52.048;6.090;2023-02-12T03:18:41;1.70;;;1.33;;
76599;SDS011;65489;52.048;6.090;2023-02-12T03:21:13;1.33;;;0.90;;
76599;SDS011;65489;52.048;6.090;2023-02-12T03:23:50;1.25;;;0.80;;
76599;SDS011;65489;52.048;6.090;2023-02-12T03:26:26;1.55;;;0.90;;
76599;SDS011;65489;52.048;6.090;2023-02-12T03:28:59;1.30;;;0.90;;
76599;SDS011;65489;52.048;6.090;2023-02-12T03:34:26;1.83;;;1.00;;
76599;SDS011;65489;52.048;6.090;2023-02-12T03:37:00;1.63;;;1.13;;
76599;SDS011;65489;52.048;6.090;2023-02-12T03:45:03;1.40;;;1.10;;
76599;SDS011;65489;52.048;6.090;2023-02-12T03:47:36;1.10;;;0.90;;
76599;SDS011;65489;52.048;6.090;2023-02-12T03:50:49;1.45;;;1.00;;
76599;SDS011;65489;52.048;6.090;2023-02-12T03:53:05;1.77;;;1.15;;
76599;SDS011;65489;52.048;6.090;2023-02-12T03:55:31;1.27;;;1.02;;
76599;SDS011;65489;52.048;6.090;2023-02-12T03:57:58;1.30;;;1.00;;
76599;SDS011;65489;52.048;6.090;2023-02-12T04:00:25;2.20;;;1.20;;
76599;SDS011;65489;52.048;6.090;2023-02-12T04:02:51;2.70;;;1.30;;
76599;SDS011;65489;52.048;6.090;2023-02-12T04:05:19;1.73;;;1.20;;
76599;SDS011;65489;52.048;6.090;2023-02-12T04:07:46;1.40;;;1.13;;
76599;SDS011;65489;52.048;6.090;2023-02-12T04:10:12;2.20;;;0.90;;
76599;SDS011;65489;52.048;6.090;2023-02-12T04:12:51;1.10;;;0.90;;
76599;SDS011;65489;52.048;6.090;2023-02-12T04:18:42;1.70;;;1.17;;
76599;SDS011;65489;52.048;6.090;2023-02-12T04:26:56;1.20;;;1.10;;
76599;SDS011;65489;52.048;6.090;2023-02-12T04:29:30;1.30;;;1.05;;
76599;SDS011;65489;52.048;6.090;2023-02-12T04:37:18;1.05;;;0.80;;
76599;SDS011;65489;52.048;6.090;2023-02-12T04:39:46;1.65;;;1.10;;
76599;SDS011;65489;52.048;6.090;2023-02-12T04:42:12;1.15;;;1.00;;
76599;SDS011;65489;52.048;6.090;2023-02-12T04:44:39;1.00;;;0.80;;
76599;SDS011;65489;52.048;6.090;2023-02-12T04:47:06;1.45;;;0.90;;
76599;SDS011;65489;52.048;6.090;2023-02-12T04:49:31;1.67;;;1.10;;
76599;SDS011;65489;52.048;6.090;2023-02-12T04:51:57;1.20;;;0.85;;
76599;SDS011;65489;52.048;6.090;2023-02-12T04:54:23;1.40;;;1.13;;
76599;SDS011;65489;52.048;6.090;2023-02-12T04:56:48;1.95;;;0.90;;
76599;SDS011;65489;52.048;6.090;2023-02-12T04:59:14;1.25;;;0.95;;
76599;SDS011;65489;52.048;6.090;2023-02-12T05:01:40;1.20;;;0.90;;
76599;SDS011;65489;52.048;6.090;2023-02-12T05:04:06;1.27;;;0.93;;
76599;SDS011;65489;52.048;6.090;2023-02-12T05:06:35;1.00;;;0.60;;
76599;SDS011;65489;52.048;6.090;2023-02-12T05:11:26;1.10;;;0.85;;
76599;SDS011;65489;52.048;6.090;2023-02-12T05:13:52;1.10;;;0.90;;
76599;SDS011;65489;52.048;6.090;2023-02-12T05:16:18;1.00;;;0.88;;
76599;SDS011;65489;52.048;6.090;2023-02-12T05:18:45;2.65;;;1.10;;
76599;SDS011;65489;52.048;6.090;2023-02-12T05:21:11;1.30;;;1.00;;
76599;SDS011;65489;52.048;6.090;2023-02-12T05:23:37;1.67;;;1.23;;
76599;SDS011;65489;52.048;6.090;2023-02-12T05:26:04;1.45;;;0.95;;
76599;SDS011;65489;52.048;6.090;2023-02-12T05:28:31;1.33;;;1.08;;
76599;SDS011;65489;52.048;6.090;2023-02-12T05:31:04;1.85;;;1.23;;
76599;SDS011;65489;52.048;6.090;2023-02-12T05:33:30;1.40;;;1.10;;
76599;SDS011;65489;52.048;6.090;2023-02-12T05:36:02;1.10;;;0.98;;
76599;SDS011;65489;52.048;6.090;2023-02-12T05:38:31;1.40;;;1.20;;
76599;SDS011;65489;52.048;6.090;2023-02-12T05:41:03;1.88;;;1.13;;
76599;SDS011;65489;52.048;6.090;2023-02-12T05:43:30;1.20;;;0.90;;
76599;SDS011;65489;52.048;6.090;2023-02-12T05:45:57;1.65;;;1.00;;
76599;SDS011;65489;52.048;6.090;2023-02-12T05:48:24;1.67;;;1.08;;
76599;SDS011;65489;52.048;6.090;2023-02-12T05:50:49;1.15;;;0.93;;
76599;SDS011;65489;52.048;6.090;2023-02-12T05:53:15;1.15;;;1.00;;
76599;SDS011;65489;52.048;6.090;2023-02-12T05:55:40;1.30;;;0.93;;
76599;SDS011;65489;52.048;6.090;2023-02-12T05:58:06;1.40;;;0.93;;
76599;SDS011;65489;52.048;6.090;2023-02-12T06:00:31;1.50;;;1.20;;
76599;SDS011;65489;52.048;6.090;2023-02-12T06:02:56;1.48;;;1.10;;
76599;SDS011;65489;52.048;6.090;2023-02-12T06:05:22;1.30;;;1.17;;
76599;SDS011;65489;52.048;6.090;2023-02-12T06:07:47;1.45;;;1.05;;
76599;SDS011;65489;52.048;6.090;2023-02-12T06:10:13;1.70;;;1.10;;
76599;SDS011;65489;52.048;6.090;2023-02-12T06:12:38;1.33;;;0.82;;
76599;SDS011;65489;52.048;6.090;2023-02-12T06:15:04;1.52;;;1.05;;
76599;SDS011;65489;52.048;6.090;2023-02-12T06:17:29;1.33;;;0.90;;
76599;SDS011;65489;52.048;6.090;2023-02-12T06:19:55;1.10;;;0.90;;
76599;SDS011;65489;52.048;6.090;2023-02-12T06:22:20;0.98;;;0.80;;
76599;SDS011;65489;52.048;6.090;2023-02-12T06:24:46;1.35;;;0.88;;
76599;SDS011;65489;52.048;6.090;2023-02-12T06:27:11;1.30;;;0.80;;
76599;SDS011;65489;52.048;6.090;2023-02-12T06:29:37;1.92;;;1.05;;
76599;SDS011;65489;52.048;6.090;2023-02-12T06:32:02;1.70;;;1.10;;
76599;SDS011;65489;52.048;6.090;2023-02-12T06:34:27;1.13;;;0.90;;
76599;SDS011;65489;52.048;6.090;2023-02-12T06:36:53;2.03;;;1.42;;
76599;SDS011;65489;52.048;6.090;2023-02-12T06:39:18;1.55;;;1.10;;
76599;SDS011;65489;52.048;6.090;2023-02-12T06:41:44;0.77;;;0.70;;
76599;SDS011;65489;52.048;6.090;2023-02-12T06:44:10;1.10;;;0.95;;
76599;SDS011;65489;52.048;6.090;2023-02-12T06:46:36;1.50;;;1.10;;
76599;SDS011;65489;52.048;6.090;2023-02-12T06:49:01;1.42;;;1.00;;
76599;SDS011;65489;52.048;6.090;2023-02-12T06:51:30;0.90;;;0.65;;
76599;SDS011;65489;52.048;6.090;2023-02-12T06:53:56;0.95;;;0.77;;
76599;SDS011;65489;52.048;6.090;2023-02-12T06:56:22;1.40;;;1.10;;
76599;SDS011;65489;52.048;6.090;2023-02-12T06:58:52;1.60;;;1.00;;
76599;SDS011;65489;52.048;6.090;2023-02-12T07:01:21;1.05;;;0.80;;
76599;SDS011;65489;52.048;6.090;2023-02-12T07:03:55;1.25;;;0.93;;
76599;SDS011;65489;52.048;6.090;2023-02-12T07:06:25;1.38;;;1.08;;
76599;SDS011;65489;52.048;6.090;2023-02-12T07:08:51;1.83;;;1.10;;
76599;SDS011;65489;52.048;6.090;2023-02-12T07:11:17;1.30;;;1.10;;
76599;SDS011;65489;52.048;6.090;2023-02-12T07:13:43;1.20;;;1.10;;
76599;SDS011;65489;52.048;6.090;2023-02-12T07:16:10;2.30;;;1.17;;
76599;SDS011;65489;52.048;6.090;2023-02-12T07:18:37;1.20;;;0.93;;
76599;SDS011;65489;52.048;6.090;2023-02-12T07:21:03;1.58;;;1.02;;
76599;SDS011;65489;52.048;6.090;2023-02-12T07:23:30;1.40;;;1.00;;
76599;SDS011;65489;52.048;6.090;2023-02-12T07:25:56;1.30;;;0.95;;
76599;SDS011;65489;52.048;6.090;2023-02-12T07:28:22;3.03;;;1.10;;
76599;SDS011;65489;52.048;6.090;2023-02-12T07:30:48;1.48;;;0.90;;
76599;SDS011;65489;52.048;6.090;2023-02-12T07:33:13;1.10;;;0.90;;
76599;SDS011;65489;52.048;6.090;2023-02-12T07:35:39;1.17;;;0.95;;
76599;SDS011;65489;52.048;6.090;2023-02-12T07:38:04;1.30;;;1.17;;
76599;SDS011;65489;52.048;6.090;2023-02-12T07:40:30;1.95;;;1.17;;
76599;SDS011;65489;52.048;6.090;2023-02-12T07:42:55;1.58;;;1.15;;
76599;SDS011;65489;52.048;6.090;2023-02-12T07:45:21;1.60;;;1.10;;
76599;SDS011;65489;52.048;6.090;2023-02-12T07:47:46;1.23;;;1.00;;
76599;SDS011;65489;52.048;6.090;2023-02-12T07:50:15;1.30;;;0.90;;
76599;SDS011;65489;52.048;6.090;2023-02-12T07:52:40;1.52;;;0.95;;
76599;SDS011;65489;52.048;6.090;2023-02-12T07:55:06;1.20;;;0.90;;
76599;SDS011;65489;52.048;6.090;2023-02-12T07:57:33;2.80;;;1.25;;
76599;SDS011;65489;52.048;6.090;2023-02-12T07:59:59;1.95;;;1.30;;
76599;SDS011;65489;52.048;6.090;2023-02-12T08:02:24;2.47;;;1.05;;
76599;SDS011;65489;52.048;6.090;2023-02-12T08:04:53;1.10;;;0.95;;
76599;SDS011;65489;52.048;6.090;2023-02-12T08:07:22;1.63;;;1.05;;
76599;SDS011;65489;52.048;6.090;2023-02-12T08:09:48;1.33;;;0.95;;
76599;SDS011;65489;52.048;6.090;2023-02-12T08:12:13;1.65;;;1.10;;
76599;SDS011;65489;52.048;6.090;2023-02-12T08:14:39;1.77;;;1.10;;
76599;SDS011;65489;52.048;6.090;2023-02-12T08:17:04;2.05;;;0.98;;
76599;SDS011;65489;52.048;6.090;2023-02-12T08:19:30;1.25;;;1.02;;
76599;SDS011;65489;52.048;6.090;2023-02-12T08:21:55;1.25;;;1.00;;
76599;SDS011;65489;52.048;6.090;2023-02-12T08:24:21;1.48;;;0.93;;
76599;SDS011;65489;52.048;6.090;2023-02-12T08:26:47;1.20;;;0.95;;
76599;SDS011;65489;52.048;6.090;2023-02-12T08:29:14;1.50;;;1.20;;
76599;SDS011;65489;52.048;6.090;2023-02-12T08:34:14;1.63;;;0.93;;
76599;SDS011;65489;52.048;6.090;2023-02-12T08:36:44;2.95;;;1.10;;
76599;SDS011;65489;52.048;6.090;2023-02-12T08:39:10;2.45;;;1.38;;
76599;SDS011;65489;52.048;6.090;2023-02-12T08:41:35;3.58;;;1.30;;
76599;SDS011;65489;52.048;6.090;2023-02-12T08:44:02;1.58;;;1.30;;
76599;SDS011;65489;52.048;6.090;2023-02-12T08:46:30;2.80;;;1.00;;
76599;SDS011;65489;52.048;6.090;2023-02-12T08:48:58;2.83;;;1.73;;
76599;SDS011;65489;52.048;6.090;2023-02-12T08:51:27;3.35;;;1.25;;
76599;SDS011;65489;52.048;6.090;2023-02-12T08:53:56;2.42;;;1.13;;
76599;SDS011;65489;52.048;6.090;2023-02-12T08:56:24;3.30;;;1.47;;
76599;SDS011;65489;52.048;6.090;2023-02-12T08:58:51;2.05;;;1.33;;
76599;SDS011;65489;52.048;6.090;2023-02-12T09:01:20;4.63;;;1.35;;
76599;SDS011;65489;52.048;6.090;2023-02-12T09:03:47;1.85;;;1.20;;
76599;SDS011;65489;52.048;6.090;2023-02-12T09:06:13;2.88;;;1.70;;
76599;SDS011;65489;52.048;6.090;2023-02-12T09:08:40;4.47;;;1.27;;
76599;SDS011;65489;52.048;6.090;2023-02-12T09:11:11;3.35;;;1.33;;
76599;SDS011;65489;52.048;6.090;2023-02-12T09:13:38;3.63;;;1.30;;
76599;SDS011;65489;52.048;6.090;2023-02-12T09:16:05;2.95;;;1.38;;
76599;SDS011;65489;52.048;6.090;2023-02-12T09:18:32;4.13;;;1.40;;
76599;SDS011;65489;52.048;6.090;2023-02-12T09:21:05;2.40;;;1.40;;
76599;SDS011;65489;52.048;6.090;2023-02-12T09:23:35;3.00;;;1.45;;
76599;SDS011;65489;52.048;6.090;2023-02-12T09:26:08;5.05;;;1.70;;
76599;SDS011;65489;52.048;6.090;2023-02-12T09:28:35;4.50;;;1.70;;
76599;SDS011;65489;52.048;6.090;2023-02-12T09:31:05;3.83;;;2.08;;
76599;SDS011;65489;52.048;6.090;2023-02-12T09:33:41;2.20;;;1.40;;
76599;SDS011;65489;52.048;6.090;2023-02-12T09:36:09;4.80;;;1.77;;
76599;SDS011;65489;52.048;6.090;2023-02-12T09:38:37;4.22;;;1.58;;
76599;SDS011;65489;52.048;6.090;2023-02-12T09:46:31;4.30;;;1.30;;
76599;SDS011;65489;52.048;6.090;2023-02-12T09:51:54;3.92;;;1.58;;
76599;SDS011;65489;52.048;6.090;2023-02-12T09:54:21;5.88;;;1.88;;
76599;SDS011;65489;52.048;6.090;2023-02-12T09:56:49;5.13;;;1.73;;
76599;SDS011;65489;52.048;6.090;2023-02-12T09:59:27;5.65;;;2.03;;
76599;SDS011;65489;52.048;6.090;2023-02-12T10:04:23;4.97;;;1.50;;
76599;SDS011;65489;52.048;6.090;2023-02-12T10:06:54;2.88;;;1.58;;
76599;SDS011;65489;52.048;6.090;2023-02-12T10:12:25;2.83;;;1.60;;
76599;SDS011;65489;52.048;6.090;2023-02-12T10:21:07;4.97;;;1.50;;
76599;SDS011;65489;52.048;6.090;2023-02-12T10:23:49;5.22;;;2.10;;
76599;SDS011;65489;52.048;6.090;2023-02-12T10:29:24;3.42;;;1.45;;
76599;SDS011;65489;52.048;6.090;2023-02-12T10:31:59;4.30;;;1.65;;
76599;SDS011;65489;52.048;6.090;2023-02-12T10:34:31;3.33;;;1.40;;
76599;SDS011;65489;52.048;6.090;2023-02-12T10:37:04;2.38;;;1.67;;
76599;SDS011;65489;52.048;6.090;2023-02-12T10:39:40;4.28;;;1.85;;
76599;SDS011;65489;52.048;6.090;2023-02-12T10:42:15;3.70;;;1.52;;
76599;SDS011;65489;52.048;6.090;2023-02-12T10:44:45;3.70;;;1.50;;
76599;SDS011;65489;52.048;6.090;2023-02-12T10:47:16;5.47;;;1.77;;
76599;SDS011;65489;52.048;6.090;2023-02-12T10:49:43;3.95;;;1.65;;
76599;SDS011;65489;52.048;6.090;2023-02-12T10:55:32;3.25;;;1.50;;
76599;SDS011;65489;52.048;6.090;2023-02-12T11:00:25;4.47;;;1.50;;
76599;SDS011;65489;52.048;6.090;2023-02-12T11:05:35;4.95;;;1.98;;
76599;SDS011;65489;52.048;6.090;2023-02-12T11:08:02;3.90;;;2.00;;
76599;SDS011;65489;52.048;6.090;2023-02-12T11:10:32;3.65;;;1.80;;
76599;SDS011;65489;52.048;6.090;2023-02-12T11:13:02;3.20;;;1.67;;
76599;SDS011;65489;52.048;6.090;2023-02-12T11:15:36;4.28;;;1.70;;
76599;SDS011;65489;52.048;6.090;2023-02-12T11:18:18;3.08;;;1.58;;
76599;SDS011;65489;52.048;6.090;2023-02-12T11:20:49;3.67;;;1.73;;
76599;SDS011;65489;52.048;6.090;2023-02-12T11:23:24;3.55;;;1.92;;
76599;SDS011;65489;52.048;6.090;2023-02-12T11:28:51;4.15;;;1.70;;
76599;SDS011;65489;52.048;6.090;2023-02-12T11:31:35;3.35;;;1.75;;
76599;SDS011;65489;52.048;6.090;2023-02-12T11:34:07;3.50;;;2.15;;
76599;SDS011;65489;52.048;6.090;2023-02-12T11:36:46;3.78;;;1.50;;
76599;SDS011;65489;52.048;6.090;2023-02-12T11:39:25;3.17;;;1.60;;
76599;SDS011;65489;52.048;6.090;2023-02-12T11:42:17;4.13;;;2.65;;
76599;SDS011;65489;52.048;6.090;2023-02-12T11:45:02;3.88;;;2.13;;
76599;SDS011;65489;52.048;6.090;2023-02-12T11:47:29;5.80;;;2.20;;
76599;SDS011;65489;52.048;6.090;2023-02-12T11:52:42;4.53;;;2.20;;
76599;SDS011;65489;52.048;6.090;2023-02-12T11:55:24;3.13;;;2.33;;
76599;SDS011;65489;52.048;6.090;2023-02-12T12:00:37;4.40;;;1.70;;
76599;SDS011;65489;52.048;6.090;2023-02-12T12:03:31;4.38;;;2.00;;
76599;SDS011;65489;52.048;6.090;2023-02-12T12:06:12;4.68;;;1.92;;
76599;SDS011;65489;52.048;6.090;2023-02-12T12:08:40;3.78;;;1.70;;
76599;SDS011;65489;52.048;6.090;2023-02-12T12:11:11;4.65;;;1.60;;
76599;SDS011;65489;52.048;6.090;2023-02-12T12:13:46;6.00;;;1.75;;
76599;SDS011;65489;52.048;6.090;2023-02-12T12:16:30;4.88;;;1.75;;
76599;SDS011;65489;52.048;6.090;2023-02-12T12:19:20;3.30;;;1.90;;
76599;SDS011;65489;52.048;6.090;2023-02-12T12:22:39;4.60;;;2.53;;
76599;SDS011;65489;52.048;6.090;2023-02-12T12:31:26;3.63;;;2.00;;
76599;SDS011;65489;52.048;6.090;2023-02-12T12:33:58;4.22;;;2.15;;
76599;SDS011;65489;52.048;6.090;2023-02-12T12:39:21;3.15;;;1.80;;
76599;SDS011;65489;52.048;6.090;2023-02-12T12:47:54;4.05;;;2.20;;
76599;SDS011;65489;52.048;6.090;2023-02-12T12:50:47;4.50;;;1.90;;
76599;SDS011;65489;52.048;6.090;2023-02-12T13:09:56;3.03;;;1.70;;
76599;SDS011;65489;52.048;6.090;2023-02-12T13:20:46;3.63;;;1.90;;
76599;SDS011;65489;52.048;6.090;2023-02-12T13:23:15;2.88;;;2.00;;
76599;SDS011;65489;52.048;6.090;2023-02-12T13:28:55;3.65;;;1.70;;
76599;SDS011;65489;52.048;6.090;2023-02-12T13:31:26;3.92;;;1.73;;
76599;SDS011;65489;52.048;6.090;2023-02-12T13:33:57;2.90;;;1.70;;
76599;SDS011;65489;52.048;6.090;2023-02-12T13:36:27;2.70;;;1.65;;
76599;SDS011;65489;52.048;6.090;2023-02-12T13:38:58;4.70;;;1.80;;
76599;SDS011;65489;52.048;6.090;2023-02-12T13:41:29;4.25;;;2.30;;
76599;SDS011;65489;52.048;6.090;2023-02-12T13:47:06;2.60;;;1.40;;
76599;SDS011;65489;52.048;6.090;2023-02-12T13:55:38;3.58;;;2.05;;
76599;SDS011;65489;52.048;6.090;2023-02-12T14:00:58;3.53;;;1.60;;
76599;SDS011;65489;52.048;6.090;2023-02-12T14:03:28;3.50;;;1.70;;
76599;SDS011;65489;52.048;6.090;2023-02-12T14:08:46;2.90;;;1.58;;
76599;SDS011;65489;52.048;6.090;2023-02-12T14:11:15;4.70;;;1.60;;
76599;SDS011;65489;52.048;6.090;2023-02-12T14:13:55;4.38;;;1.98;;
76599;SDS011;65489;52.048;6.090;2023-02-12T14:21:58;2.38;;;1.42;;
76599;SDS011;65489;52.048;6.090;2023-02-12T14:27:03;2.70;;;1.50;;
76599;SDS011;65489;52.048;6.090;2023-02-12T14:29:31;2.85;;;1.70;;
76599;SDS011;65489;52.048;6.090;2023-02-12T14:31:56;2.83;;;1.80;;
76599;SDS011;65489;52.048;6.090;2023-02-12T14:36:47;2.30;;;1.55;;
76599;SDS011;65489;52.048;6.090;2023-02-12T14:41:47;3.27;;;1.63;;
76599;SDS011;65489;52.048;6.090;2023-02-12T14:46:55;3.28;;;1.60;;
76599;SDS011;65489;52.048;6.090;2023-02-12T14:49:25;4.13;;;1.67;;
76599;SDS011;65489;52.048;6.090;2023-02-12T14:54:54;3.38;;;1.83;;
76599;SDS011;65489;52.048;6.090;2023-02-12T14:59:53;2.55;;;1.33;;
76599;SDS011;65489;52.048;6.090;2023-02-12T15:02:25;2.17;;;1.58;;
76599;SDS011;65489;52.048;6.090;2023-02-12T15:04:53;2.90;;;1.70;;
76599;SDS011;65489;52.048;6.090;2023-02-12T15:07:25;3.22;;;1.63;;
76599;SDS011;65489;52.048;6.090;2023-02-12T15:09:57;3.08;;;1.60;;
76599;SDS011;65489;52.048;6.090;2023-02-12T15:12:33;2.60;;;1.40;;
76599;SDS011;65489;52.048;6.090;2023-02-12T15:15:12;2.92;;;1.75;;
76599;SDS011;65489;52.048;6.090;2023-02-12T15:17:46;2.35;;;1.42;;
76599;SDS011;65489;52.048;6.090;2023-02-12T15:20:19;2.65;;;1.50;;
76599;SDS011;65489;52.048;6.090;2023-02-12T15:22:47;2.78;;;1.83;;
76599;SDS011;65489;52.048;6.090;2023-02-12T15:25:21;2.05;;;1.23;;
76599;SDS011;65489;52.048;6.090;2023-02-12T15:27:48;2.03;;;1.58;;
76599;SDS011;65489;52.048;6.090;2023-02-12T15:30:15;2.30;;;1.63;;
76599;SDS011;65489;52.048;6.090;2023-02-12T15:32:53;2.47;;;1.50;;
76599;SDS011;65489;52.048;6.090;2023-02-12T15:35:37;2.22;;;1.55;;
76599;SDS011;65489;52.048;6.090;2023-02-12T15:38:14;3.75;;;1.70;;
76599;SDS011;65489;52.048;6.090;2023-02-12T15:40:55;2.67;;;1.80;;
76599;SDS011;65489;52.048;6.090;2023-02-12T15:43:24;3.85;;;1.73;;
76599;SDS011;65489;52.048;6.090;2023-02-12T15:45:51;2.35;;;1.63;;
76599;SDS011;65489;52.048;6.090;2023-02-12T15:48:18;2.05;;;1.52;;
76599;SDS011;65489;52.048;6.090;2023-02-12T15:53:17;2.00;;;1.42;;
76599;SDS011;65489;52.048;6.090;2023-02-12T15:55:46;2.67;;;1.67;;
76599;SDS011;65489;52.048;6.090;2023-02-12T15:58:22;2.00;;;1.50;;
76599;SDS011;65489;52.048;6.090;2023-02-12T16:00:49;2.45;;;1.60;;
76599;SDS011;65489;52.048;6.090;2023-02-12T16:03:23;2.53;;;1.70;;
76599;SDS011;65489;52.048;6.090;2023-02-12T16:05:50;3.25;;;1.90;;
76599;SDS011;65489;52.048;6.090;2023-02-12T16:08:26;3.65;;;1.90;;
76599;SDS011;65489;52.048;6.090;2023-02-12T16:10:52;2.83;;;1.90;;
76599;SDS011;65489;52.048;6.090;2023-02-12T16:13:23;2.38;;;1.60;;
76599;SDS011;65489;52.048;6.090;2023-02-12T16:16:07;2.78;;;1.83;;
76599;SDS011;65489;52.048;6.090;2023-02-12T16:18:35;2.10;;;1.40;;
76599;SDS011;65489;52.048;6.090;2023-02-12T16:21:19;2.97;;;1.70;;
76599;SDS011;65489;52.048;6.090;2023-02-12T16:23:47;2.33;;;1.50;;
76599;SDS011;65489;52.048;6.090;2023-02-12T16:26:24;2.47;;;1.60;;
76599;SDS011;65489;52.048;6.090;2023-02-12T16:28:54;2.33;;;1.50;;
76599;SDS011;65489;52.048;6.090;2023-02-12T16:31:20;3.03;;;1.40;;
76599;SDS011;65489;52.048;6.090;2023-02-12T16:33:47;2.33;;;1.73;;
76599;SDS011;65489;52.048;6.090;2023-02-12T16:38:47;2.72;;;1.58;;
76599;SDS011;65489;52.048;6.090;2023-02-12T16:43:49;3.30;;;1.48;;
76599;SDS011;65489;52.048;6.090;2023-02-12T16:46:18;2.63;;;1.80;;
76599;SDS011;65489;52.048;6.090;2023-02-12T16:48:48;2.13;;;1.60;;
76599;SDS011;65489;52.048;6.090;2023-02-12T16:51:21;2.20;;;1.45;;
76599;SDS011;65489;52.048;6.090;2023-02-12T16:53:48;3.55;;;1.52;;
76599;SDS011;65489;52.048;6.090;2023-02-12T16:56:18;1.98;;;1.70;;
76599;SDS011;65489;52.048;6.090;2023-02-12T16:58:46;2.17;;;1.70;;
76599;SDS011;65489;52.048;6.090;2023-02-12T17:01:15;1.98;;;1.55;;
76599;SDS011;65489;52.048;6.090;2023-02-12T17:04:03;1.95;;;1.40;;
76599;SDS011;65489;52.048;6.090;2023-02-12T17:06:30;2.20;;;1.70;;
76599;SDS011;65489;52.048;6.090;2023-02-12T17:08:59;2.00;;;1.58;;
76599;SDS011;65489;52.048;6.090;2023-02-12T17:11:30;3.50;;;2.45;;
76599;SDS011;65489;52.048;6.090;2023-02-12T17:13:55;3.95;;;2.20;;
76599;SDS011;65489;52.048;6.090;2023-02-12T17:16:21;2.60;;;1.90;;
76599;SDS011;65489;52.048;6.090;2023-02-12T17:18:46;2.97;;;1.73;;
76599;SDS011;65489;52.048;6.090;2023-02-12T17:23:37;2.97;;;1.92;;
76599;SDS011;65489;52.048;6.090;2023-02-12T17:26:03;3.03;;;2.10;;
76599;SDS011;65489;52.048;6.090;2023-02-12T17:28:29;3.67;;;1.90;;
76599;SDS011;65489;52.048;6.090;2023-02-12T17:30:56;3.53;;;1.75;;
76599;SDS011;65489;52.048;6.090;2023-02-12T17:33:21;2.78;;;2.00;;
76599;SDS011;65489;52.048;6.090;2023-02-12T17:35:47;2.53;;;1.90;;
76599;SDS011;65489;52.048;6.090;2023-02-12T17:38:12;2.40;;;1.67;;
76599;SDS011;65489;52.048;6.090;2023-02-12T17:40:38;3.83;;;2.17;;
76599;SDS011;65489;52.048;6.090;2023-02-12T17:43:04;3.35;;;2.20;;
76599;SDS011;65489;52.048;6.090;2023-02-12T17:45:30;4.05;;;2.17;;
76599;SDS011;65489;52.048;6.090;2023-02-12T17:47:56;3.97;;;2.30;;
76599;SDS011;65489;52.048;6.090;2023-02-12T17:50:22;3.42;;;2.05;;
76599;SDS011;65489;52.048;6.090;2023-02-12T17:52:48;3.13;;;2.00;;
76599;SDS011;65489;52.048;6.090;2023-02-12T17:55:13;2.72;;;1.90;;
76599;SDS011;65489;52.048;6.090;2023-02-12T17:57:41;5.05;;;2.72;;
76599;SDS011;65489;52.048;6.090;2023-02-12T18:00:08;4.10;;;2.25;;
76599;SDS011;65489;52.048;6.090;2023-02-12T18:02:38;2.45;;;1.95;;
76599;SDS011;65489;52.048;6.090;2023-02-12T18:05:03;3.88;;;2.60;;
76599;SDS011;65489;52.048;6.090;2023-02-12T18:07:32;4.35;;;2.25;;
76599;SDS011;65489;52.048;6.090;2023-02-12T18:09:58;2.83;;;1.85;;